CDT,Max TemperatureF,Mean TemperatureF,Min TemperatureF,Max Dew PointF,MeanDew PointF,Min DewpointF,Max Humidity, Mean Humidity, Min Humidity, Max Sea Level PressureIn, Mean Sea Level PressureIn, Min Sea Level PressureIn, Max VisibilityMiles, Mean VisibilityMiles, Min VisibilityMiles, Max Wind SpeedMPH, Mean Wind SpeedMPH, Max Gust SpeedMPH,PrecipitationIn, CloudCover, Events, WindDirDegrees
2013-7-1,80,70,59,61,56,50,100,61,34,30.28,30.24,30.19,10,10,9,10,6,,0.00,0,,184
2013-7-2,84,70,57,61,55,50,100,57,32,30.19,30.14,30.04,10,10,10,12,5,,0.00,0,,211
2013-7-3,86,75,64,59,55,48,83,52,29,30.04,29.92,29.77,10,10,10,17,9,26,0.00,0,,175
2013-7-4,80,72,64,68,63,55,100,74,57,29.80,29.74,29.69,10,10,5,21,11,25,0.14,2,Rain-Thunderstorm,310
2013-7-5,82,70,59,64,59,50,100,72,37,29.85,29.79,29.74,10,8,0,12,4,,0.35,1,Fog-Rain-Thunderstorm,19
2013-7-6,80,72,64,72,66,63,100,86,61,29.83,29.80,29.77,10,9,1,14,8,20,0.51,2,Rain,125
2013-7-7,77,67,57,64,60,57,100,75,54,29.98,29.93,29.83,10,10,10,14,9,20,0.00,0,,272
2013-7-8,84,73,62,72,64,59,100,77,54,29.98,29.94,29.87,10,10,3,12,6,,0.05,1,Rain-Thunderstorm,178
2013-7-9,69,62,55,66,56,50,100,81,56,30.09,29.99,29.79,10,10,2,20,11,41,0.25,4,Rain-Thunderstorm,353
2013-7-10,77,64,51,61,56,52,100,74,47,30.11,30.06,29.99,10,10,5,9,6,,0.00,0,,236
2013-7-11,86,73,60,73,64,55,89,71,58,29.99,29.84,29.68,10,10,10,17,10,23,0.00,0,,160
2013-7-12,78,73,68,73,68,63,100,83,61,29.87,29.75,29.62,10,10,4,17,9,29,0.08,1,Rain-Thunderstorm,171
2013-7-13,84,73,62,72,65,63,100,79,48,30.03,29.95,29.87,10,10,0,29,8,44,0.13,1,Fog-Rain,98
2013-7-14,71,64,57,64,58,55,100,82,60,30.24,30.18,30.02,10,10,10,16,10,26,0.00,3,,31
2013-7-15,78,68,59,72,63,57,100,85,73,30.22,30.11,29.95,10,10,10,16,8,22,0.00,5,,123
2013-7-16,75,68,62,72,64,61,100,86,65,30.22,30.09,29.95,10,10,5,28,10,43,0.24,1,Rain-Thunderstorm,18
2013-7-17,73,66,59,63,59,55,100,77,57,30.26,30.19,30.04,10,10,7,16,7,22,0.01,3,Rain-Thunderstorm,70
2013-7-18,82,71,60,70,62,57,88,76,54,30.03,29.86,29.74,10,10,10,24,12,40,0.00,1,Rain,342
2013-7-19,80,68,57,63,60,57,100,84,51,29.98,29.92,29.86,10,10,3,21,11,25,0.29,1,Rain-Thunderstorm,298
2013-7-20,66,60,53,55,50,46,94,74,56,30.09,30.03,29.97,10,10,10,15,10,20,0.00,4,,85
2013-7-21,80,68,55,66,57,50,94,78,58,29.97,29.81,29.61,10,10,0,18,10,36,0.25,3,Rain-Thunderstorm,146
2013-7-22,68,62,55,61,56,54,100,83,60,30.00,29.87,29.70,10,10,7,14,9,17,0.00,4,Rain,343
2013-7-23,68,60,51,57,53,50,100,75,52,30.10,30.06,30.01,10,10,8,7,3,,0.00,1,Rain,134
2013-7-24,78,66,53,61,56,54,100,74,44,30.07,30.01,29.97,10,10,10,20,7,29,0.00,1,,276
2013-7-25,68,60,51,59,54,50,100,81,52,30.16,30.02,29.95,10,10,10,23,8,31,0.05,3,,310
2013-7-26,66,56,46,50,46,41,100,72,42,30.30,30.25,30.17,10,10,10,15,9,25,0.00,1,,7
2013-7-27,68,54,41,50,45,41,100,71,37,30.27,30.19,30.09,10,10,10,16,6,17,0.00,1,,51
2013-7-28,73,58,44,52,47,45,100,67,36,30.10,30.05,29.98,10,10,10,10,7,16,0.00,0,,136
2013-7-29,71,62,53,64,54,48,100,79,60,30.00,29.96,29.91,10,10,1,16,9,29,0.31,1,Rain-Thunderstorm,178
2013-7-30,71,62,53,61,56,54,100,85,56,30.10,30.07,30.01,10,7,0,13,5,,0.00,3,Fog,282
2013-7-31,73,60,48,57,51,48,100,75,41,30.15,30.10,30.04,10,10,9,20,8,25,0.00,0,,292